createdAt,value
2019-02-06T00:03:28.970Z,3.90
2019-02-06T00:08:34.009Z,3.80
2019-02-06T00:13:39.011Z,3.80
2019-02-06T00:18:44.014Z,3.70
2019-02-06T00:23:49.438Z,3.70
2019-02-06T00:28:54.438Z,3.60
2019-02-06T00:33:59.433Z,3.60
2019-02-06T00:39:08.791Z,3.50
2019-02-06T00:44:13.841Z,3.50
2019-02-06T00:49:18.809Z,3.50
2019-02-06T00:54:23.812Z,3.50
2019-02-06T00:59:28.825Z,3.50
2019-02-06T01:04:33.875Z,3.50
2019-02-06T01:09:38.897Z,3.40
2019-02-06T01:14:43.886Z,3.40
2019-02-06T01:19:48.870Z,3.40
2019-02-06T01:24:53.881Z,3.40
2019-02-06T01:29:58.896Z,3.30
2019-02-06T01:35:04.703Z,3.30
2019-02-06T01:40:11.906Z,3.30
2019-02-06T01:45:18.493Z,3.20
2019-02-06T01:50:23.487Z,3.30
2019-02-06T01:55:28.474Z,3.20
2019-02-06T02:00:34.270Z,3.20
2019-02-06T02:05:39.381Z,3.30
2019-02-06T02:10:44.374Z,3.40
2019-02-06T02:15:49.354Z,3.40
2019-02-06T02:20:54.330Z,3.40
2019-02-06T02:25:59.320Z,3.50
2019-02-06T02:31:04.345Z,3.50
2019-02-06T02:36:15.896Z,3.50
2019-02-06T02:41:15.910Z,3.50
2019-02-06T02:46:20.894Z,3.60
2019-02-06T02:51:25.867Z,3.60
2019-02-06T02:56:30.841Z,3.60
2019-02-06T03:01:52.414Z,3.60
2019-02-06T03:06:57.428Z,3.60
2019-02-06T03:12:02.424Z,3.70
2019-02-06T03:17:07.429Z,3.70
2019-02-06T03:22:13.658Z,3.70
2019-02-06T03:27:18.659Z,3.80
2019-02-06T03:32:23.695Z,3.80
2019-02-06T03:37:30.276Z,3.80
2019-02-06T03:42:36.319Z,3.80
2019-02-06T03:47:41.328Z,3.70
2019-02-06T03:52:46.346Z,3.60
2019-02-06T03:57:51.357Z,3.60
2019-02-06T04:02:56.408Z,3.70
2019-02-06T04:08:01.407Z,3.60
2019-02-06T04:13:06.414Z,3.60
2019-02-06T04:18:11.412Z,3.60
2019-02-06T04:23:18.291Z,3.80
2019-02-06T04:28:23.291Z,3.70
2019-02-06T04:33:28.299Z,3.80
2019-02-06T04:38:33.678Z,3.80
2019-02-06T04:43:38.729Z,3.80
2019-02-06T04:48:43.759Z,3.80
2019-02-06T04:53:48.753Z,3.90
2019-02-06T04:58:53.742Z,3.90
2019-02-06T05:03:58.757Z,4.00
2019-02-06T05:09:05.218Z,4.00
2019-02-06T05:14:10.627Z,4.00
2019-02-06T05:19:15.642Z,4.00
2019-02-06T05:24:20.626Z,4.00
2019-02-06T05:29:27.397Z,4.10
2019-02-06T05:34:32.385Z,4.20
2019-02-06T05:39:37.688Z,4.20
2019-02-06T05:44:42.677Z,4.30
2019-02-06T05:49:47.677Z,4.30
2019-02-06T05:54:52.667Z,4.30
2019-02-06T05:59:57.658Z,4.30
2019-02-06T06:05:02.656Z,4.30
2019-02-06T06:10:11.005Z,4.30
2019-02-06T06:15:17.013Z,4.30
2019-02-06T06:20:22.020Z,4.30
2019-02-06T06:25:27.032Z,4.20
2019-02-06T06:30:32.023Z,4.20
2019-02-06T06:35:37.025Z,4.30
2019-02-06T06:40:42.015Z,4.30
2019-02-06T06:45:47.005Z,4.20
2019-02-06T06:50:51.998Z,4.30
2019-02-06T06:55:56.979Z,4.30
2019-02-06T07:01:02.036Z,4.30
2019-02-06T07:06:07.343Z,4.40
2019-02-06T07:11:12.380Z,4.40
2019-02-06T07:16:17.367Z,4.40
2019-02-06T07:21:22.371Z,4.50
2019-02-06T07:26:27.355Z,4.50
2019-02-06T07:31:32.330Z,4.50
2019-02-06T07:36:37.395Z,4.50
2019-02-06T07:41:42.999Z,4.50
2019-02-06T07:46:47.950Z,4.60
2019-02-06T07:51:53.270Z,4.60
2019-02-06T07:56:58.243Z,4.60
2019-02-06T08:02:03.234Z,4.60
2019-02-06T08:07:08.518Z,4.70
2019-02-06T08:12:13.580Z,4.70
2019-02-06T08:17:18.565Z,4.70
2019-02-06T08:22:23.575Z,4.60
2019-02-06T08:27:28.541Z,4.60
2019-02-06T08:32:33.757Z,4.60
2019-02-06T08:37:38.848Z,4.50
2019-02-06T08:42:44.267Z,4.50
2019-02-06T08:47:49.247Z,4.50
2019-02-06T08:52:54.306Z,4.50
2019-02-06T08:57:59.749Z,4.50
2019-02-06T09:03:06.876Z,4.50
2019-02-06T09:08:12.102Z,4.60
2019-02-06T09:13:17.123Z,4.60
2019-02-06T09:18:22.404Z,4.50
2019-02-06T09:23:27.409Z,4.20
2019-02-06T09:28:32.419Z,4.10
2019-02-06T09:33:37.426Z,3.90
2019-02-06T09:38:42.731Z,3.90
2019-02-06T09:43:48.001Z,3.90
2019-02-06T09:48:53.008Z,3.80
2019-02-06T09:53:57.986Z,3.80
2019-02-06T09:59:02.992Z,3.80
2019-02-06T10:04:07.987Z,3.80
2019-02-06T10:09:22.664Z,3.90
2019-02-06T10:14:19.622Z,3.90
2019-02-06T10:19:26.446Z,3.90
2019-02-06T10:24:31.424Z,3.90
2019-02-06T10:29:36.423Z,3.80
2019-02-06T10:34:43.208Z,3.90
2019-02-06T10:39:48.187Z,4.00
2019-02-06T10:44:53.200Z,4.00
2019-02-06T10:50:01.618Z,4.10
2019-02-06T10:55:07.869Z,4.20
2019-02-06T11:00:19.760Z,4.10
2019-02-06T11:05:24.885Z,4.20
2019-02-06T11:10:30.433Z,4.40
2019-02-06T11:15:35.432Z,4.40
2019-02-06T11:20:40.885Z,4.40
2019-02-06T11:25:45.877Z,4.50
2019-02-06T11:30:51.394Z,4.40
2019-02-06T11:35:56.800Z,4.40
2019-02-06T11:41:01.811Z,4.50
2019-02-06T11:46:09.063Z,4.50
2019-02-06T11:51:13.556Z,4.50
2019-02-06T11:56:18.539Z,4.50
2019-02-06T12:01:30.496Z,4.60
2019-02-06T12:06:35.541Z,4.60
2019-02-06T12:11:40.536Z,4.70
2019-02-06T12:16:45.540Z,4.80
2019-02-06T12:21:50.533Z,4.80
2019-02-06T12:26:55.519Z,4.80
2019-02-06T12:32:00.530Z,4.90
2019-02-06T12:37:05.944Z,4.90
2019-02-06T12:42:11.180Z,4.90
2019-02-06T12:47:16.157Z,4.90
2019-02-06T12:52:21.153Z,4.90
2019-02-06T12:57:36.344Z,4.90
2019-02-06T13:02:33.403Z,5.00
2019-02-06T13:07:38.407Z,5.00
2019-02-06T13:12:43.643Z,5.00
2019-02-06T13:17:49.069Z,5.10
2019-02-06T13:22:54.300Z,5.10
2019-02-06T13:27:59.498Z,5.20
2019-02-06T13:33:06.818Z,5.20
2019-02-06T13:38:11.836Z,5.20
2019-02-06T13:43:17.027Z,5.20
2019-02-06T13:48:24.223Z,5.20
2019-02-06T13:53:30.505Z,5.20
2019-02-06T13:58:35.556Z,5.20
2019-02-06T14:03:40.538Z,5.20
2019-02-06T14:08:46.045Z,5.20
2019-02-06T14:13:51.141Z,5.20
2019-02-06T14:18:56.134Z,5.10
2019-02-06T14:24:46.416Z,5.20
2019-02-06T14:30:47.744Z,5.20
2019-02-06T14:36:13.320Z,5.20
2019-02-06T14:41:43.519Z,5.10
2019-02-06T14:47:08.320Z,5.10
2019-02-06T14:52:34.312Z,5.10
2019-02-06T14:58:01.093Z,5.00
2019-02-06T15:03:39.620Z,5.00
2019-02-06T15:09:04.003Z,5.00
2019-02-06T15:14:39.819Z,5.10
2019-02-06T15:20:05.632Z,5.10
2019-02-06T15:25:43.651Z,5.10
2019-02-06T15:31:41.981Z,5.10
2019-02-06T15:37:30.528Z,5.10
2019-02-06T15:42:58.015Z,5.00
2019-02-06T15:48:33.574Z,5.10
2019-02-06T15:54:22.901Z,5.00
2019-02-06T15:59:49.678Z,5.00
2019-02-06T16:05:44.831Z,5.00
2019-02-06T16:11:41.938Z,5.00
2019-02-06T16:17:25.136Z,5.00
2019-02-06T16:23:12.626Z,5.00
2019-02-06T16:28:44.504Z,4.90
2019-02-06T16:34:32.484Z,4.90
2019-02-06T16:40:30.584Z,4.90
2019-02-06T16:46:12.151Z,4.90
2019-02-06T16:51:33.033Z,4.90
2019-02-06T16:57:04.599Z,4.90
2019-02-06T17:02:40.580Z,4.90
2019-02-06T17:08:28.762Z,4.90
2019-02-06T17:13:57.668Z,4.90
2019-02-06T17:19:49.505Z,4.90
2019-02-06T17:25:36.254Z,4.90
2019-02-06T17:31:14.299Z,4.90
2019-02-06T17:36:59.182Z,5.00
2019-02-06T17:42:26.008Z,4.90
2019-02-06T17:47:56.086Z,4.90
2019-02-06T17:53:21.876Z,4.90
2019-02-06T17:58:30.304Z,4.90
2019-02-06T18:03:40.385Z,4.90
2019-02-06T18:08:56.067Z,4.90
2019-02-06T18:13:52.024Z,4.90
2019-02-06T18:18:56.994Z,4.90
2019-02-06T18:24:02.109Z,4.90
2019-02-06T18:29:07.401Z,4.90
2019-02-06T18:34:12.406Z,4.90
2019-02-06T18:39:19.339Z,4.90
2019-02-06T18:44:25.290Z,4.90
2019-02-06T18:49:30.425Z,4.90
2019-02-06T18:54:35.414Z,4.90
2019-02-06T18:59:40.392Z,4.90
2019-02-06T19:04:46.357Z,4.80
2019-02-06T19:09:51.524Z,4.80
2019-02-06T19:14:58.867Z,4.90
2019-02-06T19:20:03.275Z,4.90
2019-02-06T19:25:09.446Z,5.00
2019-02-06T19:30:24.445Z,5.10
2019-02-06T19:35:30.124Z,5.10
2019-02-06T19:40:35.209Z,5.10
2019-02-06T19:45:40.197Z,5.10
2019-02-06T19:50:45.247Z,5.10
2019-02-06T19:55:50.212Z,5.10
2019-02-06T20:00:55.199Z,5.10
2019-02-06T20:06:00.180Z,5.00
2019-02-06T20:11:05.163Z,5.00
2019-02-06T20:16:12.089Z,5.10
2019-02-06T20:21:17.127Z,5.10
2019-02-06T20:26:22.104Z,5.00
2019-02-06T20:31:27.085Z,5.10
2019-02-06T20:36:32.118Z,5.10
2019-02-06T20:41:37.145Z,5.10
2019-02-06T20:46:42.126Z,5.10
2019-02-06T20:51:47.104Z,5.10
2019-02-06T20:56:52.075Z,5.10
2019-02-06T21:01:57.326Z,5.10
2019-02-06T21:07:02.309Z,5.20
2019-02-06T21:12:07.273Z,5.20
2019-02-06T21:17:12.252Z,5.20
2019-02-06T21:22:17.237Z,5.20
2019-02-06T21:27:22.270Z,5.20
2019-02-06T21:32:27.694Z,5.30
2019-02-06T21:37:32.801Z,5.30
2019-02-06T21:42:37.792Z,5.30
2019-02-06T21:47:42.765Z,5.30
2019-02-06T21:52:47.964Z,5.30
2019-02-06T21:57:53.639Z,5.30
2019-02-06T22:02:58.916Z,5.30
2019-02-06T22:08:03.919Z,5.30
2019-02-06T22:13:09.391Z,5.30
2019-02-06T22:18:14.391Z,5.30
2019-02-06T22:23:19.379Z,5.20
2019-02-06T22:28:24.472Z,5.20
2019-02-06T22:33:31.027Z,5.20
2019-02-06T22:38:39.336Z,5.20
2019-02-06T22:43:47.664Z,5.30
2019-02-06T22:48:52.636Z,5.30
2019-02-06T22:53:57.612Z,5.30
2019-02-06T22:59:02.700Z,5.40
2019-02-06T23:04:07.691Z,5.40
2019-02-06T23:09:15.135Z,5.50
2019-02-06T23:14:20.125Z,5.60
2019-02-06T23:19:25.572Z,5.60
2019-02-06T23:24:30.595Z,5.70
2019-02-06T23:29:36.068Z,5.70
2019-02-06T23:34:41.060Z,5.70
2019-02-06T23:39:46.053Z,5.80
2019-02-06T23:44:51.087Z,5.80
2019-02-06T23:49:56.064Z,5.80
2019-02-06T23:55:01.048Z,5.80
